Terminal Aerodrome Forecast
Issued by NWS

Home | Current Version | Previous Version | Text Only | Print | Product List | Glossary On
Versions: 1 2 3 4 5 6 7 8 9 10 11 12 13 14 15 16 17 18 19 20 21 22
000
FTUS44 KLZK 292357
TAFLLQ
TAF
KLLQ 292357Z 3000/3024 18010G20KT P6SM VCTS SCT050CB BKN100
      TEMPO 3000/3003 VRB20G30KT 3SM -TSRA BKN020 OVC040CB
     FM300400 18012G20KT P6SM VCSH SCT025 OVC035
     FM301000 19012KT 5SM -TSRA SCT025 OVC035CB
     FM301500 24010G20KT P6SM BKN040
     FM301900 25015G25KT P6SM SCT050=

USA.gov is the U.S. government's official web portal to all federal, state and local government web resources and services.